sensor_id;sensor_type;location;lat;lon;timestamp;pressure;altitude;pressure_sealevel;temperature;humidity
69060;BME280;56135;37.534;-122.308;2023-04-02T00:07:51;102102.25;;;16.07;88.19
69060;BME280;56135;37.534;-122.308;2023-04-02T00:10:27;102099.91;;;15.86;85.08
69060;BME280;56135;37.534;-122.308;2023-04-02T00:13:00;102103.41;;;15.89;91.71
69060;BME280;56135;37.534;-122.308;2023-04-02T00:15:27;102101.66;;;15.87;87.75
69060;BME280;56135;37.534;-122.308;2023-04-02T00:17:54;102096.38;;;15.83;94.06
69060;BME280;56135;37.534;-122.308;2023-04-02T00:20:20;102099.22;;;15.66;87.25
69060;BME280;56135;37.534;-122.308;2023-04-02T00:22:48;102096.53;;;15.68;91.29
69060;BME280;56135;37.534;-122.308;2023-04-02T00:25:14;102103.50;;;15.77;90.13
69060;BME280;56135;37.534;-122.308;2023-04-02T00:27:41;102100.94;;;15.72;90.30
69060;BME280;56135;37.534;-122.308;2023-04-02T00:30:13;102108.00;;;15.75;93.05
69060;BME280;56135;37.534;-122.308;2023-04-02T00:32:39;102099.97;;;15.76;94.09
69060;BME280;56135;37.534;-122.308;2023-04-02T00:35:26;102094.03;;;15.57;92.09
69060;BME280;56135;37.534;-122.308;2023-04-02T00:37:54;102102.13;;;15.45;95.89
69060;BME280;56135;37.534;-122.308;2023-04-02T00:40:26;102106.72;;;15.33;97.81
69060;BME280;56135;37.534;-122.308;2023-04-02T00:42:57;102101.31;;;15.38;100.00
69060;BME280;56135;37.534;-122.308;2023-04-02T00:45:26;102102.28;;;15.32;100.00
69060;BME280;56135;37.534;-122.308;2023-04-02T00:47:57;102100.59;;;15.25;99.97
69060;BME280;56135;37.534;-122.308;2023-04-02T00:50:34;102095.25;;;15.24;98.70
69060;BME280;56135;37.534;-122.308;2023-04-02T00:53:03;102091.81;;;15.14;100.00
69060;BME280;56135;37.534;-122.308;2023-04-02T00:55:36;102100.75;;;15.08;100.00
69060;BME280;56135;37.534;-122.308;2023-04-02T00:58:15;102086.56;;;15.09;100.00
69060;BME280;56135;37.534;-122.308;2023-04-02T01:00:48;102091.97;;;15.00;100.00
69060;BME280;56135;37.534;-122.308;2023-04-02T01:05:43;102085.81;;;14.95;100.00
69060;BME280;56135;37.534;-122.308;2023-04-02T01:08:26;102086.72;;;14.92;100.00
69060;BME280;56135;37.534;-122.308;2023-04-02T01:10:58;102085.91;;;14.86;100.00
69060;BME280;56135;37.534;-122.308;2023-04-02T01:20:04;102078.97;;;14.66;100.00
69060;BME280;56135;37.534;-122.308;2023-04-02T01:24:34;102086.13;;;14.55;100.00
69060;BME280;56135;37.534;-122.308;2023-04-02T01:27:10;102085.34;;;14.39;100.00
69060;BME280;56135;37.534;-122.308;2023-04-02T01:29:45;102080.94;;;14.39;100.00
69060;BME280;56135;37.534;-122.308;2023-04-02T01:32:19;102080.09;;;14.32;100.00
69060;BME280;56135;37.534;-122.308;2023-04-02T01:34:48;102076.53;;;14.32;100.00
69060;BME280;56135;37.534;-122.308;2023-04-02T01:45:29;102079.41;;;14.01;100.00
69060;BME280;56135;37.534;-122.308;2023-04-02T01:47:55;102073.22;;;13.97;100.00
69060;BME280;56135;37.534;-122.308;2023-04-02T01:50:24;102086.50;;;13.99;100.00
69060;BME280;56135;37.534;-122.308;2023-04-02T01:52:54;102083.91;;;13.85;100.00
69060;BME280;56135;37.534;-122.308;2023-04-02T01:55:44;102084.84;;;13.73;100.00
69060;BME280;56135;37.534;-122.308;2023-04-02T01:58:13;102083.03;;;13.83;100.00
69060;BME280;56135;37.534;-122.308;2023-04-02T02:01:01;102091.06;;;13.71;100.00
69060;BME280;56135;37.534;-122.308;2023-04-02T02:03:29;102084.03;;;13.57;100.00
69060;BME280;56135;37.534;-122.308;2023-04-02T02:05:56;102085.84;;;13.49;100.00
69060;BME280;56135;37.534;-122.308;2023-04-02T02:10:59;102086.78;;;13.20;100.00
69060;BME280;56135;37.534;-122.308;2023-04-02T02:13:26;102077.94;;;13.07;100.00
69060;BME280;56135;37.534;-122.308;2023-04-02T02:15:58;102083.28;;;13.01;100.00
69060;BME280;56135;37.534;-122.308;2023-04-02T02:18:27;102082.38;;;12.93;100.00
69060;BME280;56135;37.534;-122.308;2023-04-02T02:20:56;102078.84;;;12.86;100.00
69060;BME280;56135;37.534;-122.308;2023-04-02T02:23:23;102079.75;;;12.73;100.00
69060;BME280;56135;37.534;-122.308;2023-04-02T02:25:53;102079.75;;;12.71;100.00
69060;BME280;56135;37.534;-122.308;2023-04-02T02:28:35;102077.09;;;12.57;100.00
69060;BME280;56135;37.534;-122.308;2023-04-02T02:31:28;102068.25;;;12.50;100.00
69060;BME280;56135;37.534;-122.308;2023-04-02T02:33:59;102078.00;;;12.38;100.00
69060;BME280;56135;37.534;-122.308;2023-04-02T02:36:37;102072.66;;;12.22;100.00
69060;BME280;56135;37.534;-122.308;2023-04-02T02:39:19;102075.31;;;12.11;100.00
69060;BME280;56135;37.534;-122.308;2023-04-02T02:41:52;102077.94;;;12.08;100.00
69060;BME280;56135;37.534;-122.308;2023-04-02T02:44:27;102071.72;;;12.01;100.00
69060;BME280;56135;37.534;-122.308;2023-04-02T02:46:59;102078.75;;;11.92;100.00
69060;BME280;56135;37.534;-122.308;2023-04-02T02:49:31;102076.97;;;11.92;100.00
69060;BME280;56135;37.534;-122.308;2023-04-02T02:54:35;102072.50;;;11.77;100.00
69060;BME280;56135;37.534;-122.308;2023-04-02T02:57:06;102077.72;;;11.60;100.00
69060;BME280;56135;37.534;-122.308;2023-04-02T02:59:34;102083.03;;;11.57;100.00
69060;BME280;56135;37.534;-122.308;2023-04-02T03:02:00;102083.91;;;11.56;100.00
69060;BME280;56135;37.534;-122.308;2023-04-02T03:04:28;102084.72;;;11.44;100.00
69060;BME280;56135;37.534;-122.308;2023-04-02T03:06:56;102090.06;;;11.47;100.00
69060;BME280;56135;37.534;-122.308;2023-04-02T03:15:14;102087.31;;;11.30;100.00
69060;BME280;56135;37.534;-122.308;2023-04-02T03:20:51;102091.63;;;11.17;100.00
69060;BME280;56135;37.534;-122.308;2023-04-02T03:28:38;102090.66;;;11.05;100.00
69060;BME280;56135;37.534;-122.308;2023-04-02T03:31:15;102091.50;;;10.94;100.00
69060;BME280;56135;37.534;-122.308;2023-04-02T03:33:49;102094.16;;;10.97;100.00
69060;BME280;56135;37.534;-122.308;2023-04-02T03:36:39;102089.66;;;10.85;100.00
69060;BME280;56135;37.534;-122.308;2023-04-02T03:39:20;102094.00;;;10.79;100.00
69060;BME280;56135;37.534;-122.308;2023-04-02T03:42:08;102097.53;;;10.78;100.00
69060;BME280;56135;37.534;-122.308;2023-04-02T03:44:59;102108.09;;;10.76;100.00
69060;BME280;56135;37.534;-122.308;2023-04-02T03:47:41;102108.00;;;10.68;100.00
69060;BME280;56135;37.534;-122.308;2023-04-02T03:52:48;102103.56;;;10.63;100.00
69060;BME280;56135;37.534;-122.308;2023-04-02T03:55:21;102110.59;;;10.61;100.00
69060;BME280;56135;37.534;-122.308;2023-04-02T03:58:24;102119.34;;;10.54;100.00
69060;BME280;56135;37.534;-122.308;2023-04-02T04:01:30;102117.53;;;10.48;100.00
69060;BME280;56135;37.534;-122.308;2023-04-02T04:04:13;102121.91;;;10.46;100.00
69060;BME280;56135;37.534;-122.308;2023-04-02T04:06:45;102121.88;;;10.43;100.00
69060;BME280;56135;37.534;-122.308;2023-04-02T04:14:33;102142.84;;;10.30;100.00
69060;BME280;56135;37.534;-122.308;2023-04-02T04:17:18;102148.09;;;10.29;100.00
69060;BME280;56135;37.534;-122.308;2023-04-02T04:20:51;102151.66;;;10.28;100.00
69060;BME280;56135;37.534;-122.308;2023-04-02T04:23:32;102154.22;;;10.22;100.00
69060;BME280;56135;37.534;-122.308;2023-04-02T04:31:45;102170.88;;;10.17;100.00
69060;BME280;56135;37.534;-122.308;2023-04-02T04:34:39;102177.97;;;10.20;100.00
69060;BME280;56135;37.534;-122.308;2023-04-02T04:37:25;102180.69;;;10.28;100.00
69060;BME280;56135;37.534;-122.308;2023-04-02T04:40:03;102180.75;;;10.34;100.00
69060;BME280;56135;37.534;-122.308;2023-04-02T04:42:34;102182.59;;;10.40;100.00
69060;BME280;56135;37.534;-122.308;2023-04-02T04:48:23;102193.34;;;10.57;100.00
69060;BME280;56135;37.534;-122.308;2023-04-02T04:51:00;102183.72;;;10.63;100.00
69060;BME280;56135;37.534;-122.308;2023-04-02T04:53:29;102179.38;;;10.67;100.00
69060;BME280;56135;37.534;-122.308;2023-04-02T04:56:00;102176.81;;;10.75;100.00
69060;BME280;56135;37.534;-122.308;2023-04-02T04:58:47;102183.88;;;10.79;100.00
69060;BME280;56135;37.534;-122.308;2023-04-02T05:01:28;102186.59;;;10.85;100.00
69060;BME280;56135;37.534;-122.308;2023-04-02T05:06:44;102178.75;;;10.97;100.00
69060;BME280;56135;37.534;-122.308;2023-04-02T05:09:28;102172.63;;;11.05;100.00
69060;BME280;56135;37.534;-122.308;2023-04-02T05:12:09;102175.31;;;11.06;100.00
69060;BME280;56135;37.534;-122.308;2023-04-02T05:17:50;102183.31;;;11.15;100.00
69060;BME280;56135;37.534;-122.308;2023-04-02T05:25:31;102180.69;;;11.20;100.00
69060;BME280;56135;37.534;-122.308;2023-04-02T05:28:04;102184.28;;;11.25;100.00
69060;BME280;56135;37.534;-122.308;2023-04-02T05:30:51;102184.28;;;11.30;100.00
69060;BME280;56135;37.534;-122.308;2023-04-02T05:33:25;102179.91;;;11.30;100.00
69060;BME280;56135;37.534;-122.308;2023-04-02T05:36:00;102179.91;;;11.30;100.00
69060;BME280;56135;37.534;-122.308;2023-04-02T05:38:31;102178.13;;;11.28;100.00
69060;BME280;56135;37.534;-122.308;2023-04-02T05:43:59;102178.09;;;11.25;100.00
69060;BME280;56135;37.534;-122.308;2023-04-02T05:46:33;102170.19;;;11.26;100.00
69060;BME280;56135;37.534;-122.308;2023-04-02T05:49:06;102166.66;;;11.29;100.00
69060;BME280;56135;37.534;-122.308;2023-04-02T05:51:49;102164.91;;;11.32;100.00
69060;BME280;56135;37.534;-122.308;2023-04-02T05:54:56;102164.03;;;11.32;100.00
69060;BME280;56135;37.534;-122.308;2023-04-02T05:57:38;102164.03;;;11.33;100.00
69060;BME280;56135;37.534;-122.308;2023-04-02T06:00:14;102157.00;;;11.34;100.00
69060;BME280;56135;37.534;-122.308;2023-04-02T06:02:46;102155.25;;;11.38;100.00
69060;BME280;56135;37.534;-122.308;2023-04-02T06:05:27;102150.00;;;11.41;100.00
69060;BME280;56135;37.534;-122.308;2023-04-02T06:11:08;102142.06;;;11.45;100.00
69060;BME280;56135;37.534;-122.308;2023-04-02T06:13:36;102140.34;;;11.52;100.00
69060;BME280;56135;37.534;-122.308;2023-04-02T06:16:03;102138.53;;;11.45;100.00
69060;BME280;56135;37.534;-122.308;2023-04-02T06:18:31;102132.34;;;11.44;100.00
69060;BME280;56135;37.534;-122.308;2023-04-02T06:20:59;102134.13;;;11.47;100.00
69060;BME280;56135;37.534;-122.308;2023-04-02T06:26:34;102118.19;;;11.39;100.00
69060;BME280;56135;37.534;-122.308;2023-04-02T06:29:25;102109.34;;;11.28;100.00
69060;BME280;56135;37.534;-122.308;2023-04-02T06:31:56;102121.69;;;11.32;100.00
69060;BME280;56135;37.534;-122.308;2023-04-02T06:34:25;102118.16;;;11.27;100.00
69060;BME280;56135;37.534;-122.308;2023-04-02T06:37:01;102106.69;;;11.25;100.00
69060;BME280;56135;37.534;-122.308;2023-04-02T06:39:29;102110.16;;;11.21;100.00
69060;BME280;56135;37.534;-122.308;2023-04-02T06:44:31;102102.16;;;11.10;100.00
69060;BME280;56135;37.534;-122.308;2023-04-02T06:49:50;102109.16;;;11.05;100.00
69060;BME280;56135;37.534;-122.308;2023-04-02T06:52:32;102104.81;;;11.10;100.00
69060;BME280;56135;37.534;-122.308;2023-04-02T06:55:04;102110.13;;;11.13;100.00
69060;BME280;56135;37.534;-122.308;2023-04-02T06:57:32;102103.09;;;11.16;100.00
69060;BME280;56135;37.534;-122.308;2023-04-02T07:00:00;102108.41;;;11.18;100.00
69060;BME280;56135;37.534;-122.308;2023-04-02T07:02:36;102107.56;;;11.24;100.00
69060;BME280;56135;37.534;-122.308;2023-04-02T07:05:06;102098.75;;;11.28;100.00
69060;BME280;56135;37.534;-122.308;2023-04-02T07:07:37;102097.91;;;11.33;100.00
69060;BME280;56135;37.534;-122.308;2023-04-02T07:10:03;102098.81;;;11.40;100.00
69060;BME280;56135;37.534;-122.308;2023-04-02T07:12:29;102090.88;;;11.42;100.00
69060;BME280;56135;37.534;-122.308;2023-04-02T07:14:55;102096.22;;;11.48;100.00
69060;BME280;56135;37.534;-122.308;2023-04-02T07:17:22;102092.69;;;11.46;100.00
69060;BME280;56135;37.534;-122.308;2023-04-02T07:19:48;102096.22;;;11.51;100.00
69060;BME280;56135;37.534;-122.308;2023-04-02T07:22:16;102090.97;;;11.54;100.00
69060;BME280;56135;37.534;-122.308;2023-04-02T07:24:42;102087.44;;;11.55;100.00
69060;BME280;56135;37.534;-122.308;2023-04-02T07:27:10;102075.13;;;11.62;100.00
69060;BME280;56135;37.534;-122.308;2023-04-02T07:29:36;102070.69;;;11.64;100.00
69060;BME280;56135;37.534;-122.308;2023-04-02T07:32:11;102072.47;;;11.68;100.00
69060;BME280;56135;37.534;-122.308;2023-04-02T07:34:39;102080.41;;;11.66;100.00
69060;BME280;56135;37.534;-122.308;2023-04-02T07:37:06;102073.38;;;11.72;100.00
69060;BME280;56135;37.534;-122.308;2023-04-02T07:39:33;102076.03;;;11.72;100.00
69060;BME280;56135;37.534;-122.308;2023-04-02T07:42:00;102080.44;;;11.79;100.00
69060;BME280;56135;37.534;-122.308;2023-04-02T07:44:27;102081.34;;;11.79;100.00
69060;BME280;56135;37.534;-122.308;2023-04-02T07:46:54;102084.00;;;11.79;100.00
69060;BME280;56135;37.534;-122.308;2023-04-02T07:49:20;102080.44;;;11.79;100.00
69060;BME280;56135;37.534;-122.308;2023-04-02T07:51:47;102077.84;;;11.87;100.00
69060;BME280;56135;37.534;-122.308;2023-04-02T07:54:13;102069.91;;;11.85;100.00
69060;BME280;56135;37.534;-122.308;2023-04-02T07:56:39;102075.19;;;11.80;100.00
69060;BME280;56135;37.534;-122.308;2023-04-02T07:59:05;102073.38;;;11.76;100.00
69060;BME280;56135;37.534;-122.308;2023-04-02T08:01:32;102076.94;;;11.75;100.00
69060;BME280;56135;37.534;-122.308;2023-04-02T08:04:01;102074.28;;;11.77;100.00
69060;BME280;56135;37.534;-122.308;2023-04-02T08:06:28;102080.44;;;11.76;100.00
69060;BME280;56135;37.534;-122.308;2023-04-02T08:08:56;102084.88;;;11.75;100.00
69060;BME280;56135;37.534;-122.308;2023-04-02T08:11:23;102075.13;;;11.69;100.00
69060;BME280;56135;37.534;-122.308;2023-04-02T08:13:49;102073.38;;;11.76;100.00
69060;BME280;56135;37.534;-122.308;2023-04-02T08:16:16;102074.28;;;11.75;100.00
69060;BME280;56135;37.534;-122.308;2023-04-02T08:18:43;102078.69;;;11.73;100.00
69060;BME280;56135;37.534;-122.308;2023-04-02T08:21:12;102078.69;;;11.76;100.00
69060;BME280;56135;37.534;-122.308;2023-04-02T08:23:39;102079.59;;;11.74;100.00
69060;BME280;56135;37.534;-122.308;2023-04-02T08:26:05;102083.09;;;11.77;100.00
69060;BME280;56135;37.534;-122.308;2023-04-02T08:28:32;102076.94;;;11.77;100.00
69060;BME280;56135;37.534;-122.308;2023-04-02T08:30:58;102082.22;;;11.78;100.00
69060;BME280;56135;37.534;-122.308;2023-04-02T08:33:24;102076.94;;;11.75;100.00
69060;BME280;56135;37.534;-122.308;2023-04-02T08:35:51;102076.03;;;11.75;100.00
69060;BME280;56135;37.534;-122.308;2023-04-02T08:38:19;102063.69;;;11.75;100.00
69060;BME280;56135;37.534;-122.308;2023-04-02T08:40:51;102059.28;;;11.73;100.00
69060;BME280;56135;37.534;-122.308;2023-04-02T08:47:02;102060.97;;;11.61;100.00
69060;BME280;56135;37.534;-122.308;2023-04-02T08:49:44;102063.63;;;11.60;100.00
69060;BME280;56135;37.534;-122.308;2023-04-02T08:52:41;102058.34;;;11.63;100.00
69060;BME280;56135;37.534;-122.308;2023-04-02T08:55:17;102061.84;;;11.56;100.00
69060;BME280;56135;37.534;-122.308;2023-04-02T09:03:18;102072.41;;;11.46;100.00
69060;BME280;56135;37.534;-122.308;2023-04-02T09:05:46;102068.84;;;11.41;100.00
69060;BME280;56135;37.534;-122.308;2023-04-02T09:08:23;102074.94;;;11.25;100.00
69060;BME280;56135;37.534;-122.308;2023-04-02T09:10:59;102064.38;;;11.26;100.00
69060;BME280;56135;37.534;-122.308;2023-04-02T09:13:29;102070.47;;;11.21;100.00
69060;BME280;56135;37.534;-122.308;2023-04-02T09:16:10;102061.69;;;11.23;100.00
69060;BME280;56135;37.534;-122.308;2023-04-02T09:18:37;102071.38;;;11.18;100.00
69060;BME280;56135;37.534;-122.308;2023-04-02T09:21:34;102061.63;;;11.09;100.00
69060;BME280;56135;37.534;-122.308;2023-04-02T09:24:03;102055.41;;;11.06;100.00
69060;BME280;56135;37.534;-122.308;2023-04-02T09:26:31;102052.72;;;10.98;100.00
69060;BME280;56135;37.534;-122.308;2023-04-02T09:31:43;102057.06;;;10.88;100.00
69060;BME280;56135;37.534;-122.308;2023-04-02T09:34:31;102062.34;;;10.88;100.00
69060;BME280;56135;37.534;-122.308;2023-04-02T09:37:23;102057.00;;;10.79;100.00
69060;BME280;56135;37.534;-122.308;2023-04-02T09:39:50;102054.25;;;10.65;100.00
69060;BME280;56135;37.534;-122.308;2023-04-02T09:42:31;102050.78;;;10.69;100.00
69060;BME280;56135;37.534;-122.308;2023-04-02T09:45:21;102044.56;;;10.67;100.00
69060;BME280;56135;37.534;-122.308;2023-04-02T09:47:48;102043.66;;;10.62;100.00
69060;BME280;56135;37.534;-122.308;2023-04-02T09:52:50;102029.59;;;10.64;100.00
69060;BME280;56135;37.534;-122.308;2023-04-02T09:55:20;102030.44;;;10.60;100.00
69060;BME280;56135;37.534;-122.308;2023-04-02T09:57:48;102025.94;;;10.50;100.00
69060;BME280;56135;37.534;-122.308;2023-04-02T10:00:19;102027.69;;;10.46;100.00
69060;BME280;56135;37.534;-122.308;2023-04-02T10:03:00;102025.03;;;10.45;100.00
69060;BME280;56135;37.534;-122.308;2023-04-02T10:05:29;102030.34;;;10.48;100.00
69060;BME280;56135;37.534;-122.308;2023-04-02T10:08:15;102025.00;;;10.39;100.00
69060;BME280;56135;37.534;-122.308;2023-04-02T10:10:48;102025.00;;;10.40;100.00
69060;BME280;56135;37.534;-122.308;2023-04-02T10:14:04;102018.88;;;10.46;100.00
69060;BME280;56135;37.534;-122.308;2023-04-02T10:16:32;102025.13;;;10.56;100.00
69060;BME280;56135;37.534;-122.308;2023-04-02T10:19:05;102024.22;;;10.54;100.00
69060;BME280;56135;37.534;-122.308;2023-04-02T10:21:39;102023.34;;;10.53;100.00
69060;BME280;56135;37.534;-122.308;2023-04-02T10:24:11;102026.84;;;10.52;100.00
69060;BME280;56135;37.534;-122.308;2023-04-02T10:26:59;102021.44;;;10.37;100.00
69060;BME280;56135;37.534;-122.308;2023-04-02T10:29:35;102028.41;;;10.31;100.00
69060;BME280;56135;37.534;-122.308;2023-04-02T10:32:20;102020.56;;;10.36;100.00
69060;BME280;56135;37.534;-122.308;2023-04-02T10:40:18;102016.97;;;10.32;100.00
69060;BME280;56135;37.534;-122.308;2023-04-02T10:48:58;102033.66;;;10.28;100.00
69060;BME280;56135;37.534;-122.308;2023-04-02T10:51:40;102015.19;;;10.31;100.00
69060;BME280;56135;37.534;-122.308;2023-04-02T10:57:38;102026.59;;;10.24;100.00
69060;BME280;56135;37.534;-122.308;2023-04-02T11:05:45;102022.94;;;10.11;100.00
69060;BME280;56135;37.534;-122.308;2023-04-02T11:10:48;102022.06;;;10.11;100.00
69060;BME280;56135;37.534;-122.308;2023-04-02T11:16:01;102018.50;;;10.09;100.00
69060;BME280;56135;37.534;-122.308;2023-04-02T11:18:33;102009.72;;;10.07;100.00
69060;BME280;56135;37.534;-122.308;2023-04-02T11:24:01;102008.09;;;10.24;100.00
69060;BME280;56135;37.534;-122.308;2023-04-02T11:26:42;102004.56;;;10.24;100.00
69060;BME280;56135;37.534;-122.308;2023-04-02T11:29:19;102001.09;;;10.29;100.00
69060;BME280;56135;37.534;-122.308;2023-04-02T11:31:47;102004.63;;;10.30;100.00
69060;BME280;56135;37.534;-122.308;2023-04-02T11:34:56;101999.28;;;10.24;100.00
69060;BME280;56135;37.534;-122.308;2023-04-02T11:37:02;102002.75;;;10.16;100.00
69060;BME280;56135;37.534;-122.308;2023-04-02T11:39:51;102003.56;;;10.09;100.00
69060;BME280;56135;37.534;-122.308;2023-04-02T11:42:28;102005.38;;;10.16;100.00
69060;BME280;56135;37.534;-122.308;2023-04-02T11:44:58;102000.13;;;10.18;100.00
69060;BME280;56135;37.534;-122.308;2023-04-02T11:47:26;102009.75;;;10.14;100.00
69060;BME280;56135;37.534;-122.308;2023-04-02T11:49:59;102016.84;;;10.18;100.00
69060;BME280;56135;37.534;-122.308;2023-04-02T11:52:48;102011.50;;;10.09;100.00
69060;BME280;56135;37.534;-122.308;2023-04-02T11:55:28;102019.25;;;9.95;100.00
69060;BME280;56135;37.534;-122.308;2023-04-02T12:09:48;102017.53;;;9.97;100.00
69060;BME280;56135;37.534;-122.308;2023-04-02T12:12:27;102022.00;;;10.06;100.00
69060;BME280;56135;37.534;-122.308;2023-04-02T12:14:55;102021.88;;;9.94;100.00
69060;BME280;56135;37.534;-122.308;2023-04-02T12:17:33;102029.03;;;10.04;100.00
69060;BME280;56135;37.534;-122.308;2023-04-02T12:22:54;102015.84;;;10.06;100.00
69060;BME280;56135;37.534;-122.308;2023-04-02T12:25:32;102013.22;;;10.09;100.00
69060;BME280;56135;37.534;-122.308;2023-04-02T12:30:40;102010.59;;;10.09;100.00
69060;BME280;56135;37.534;-122.308;2023-04-02T12:33:30;102007.03;;;10.05;100.00
69060;BME280;56135;37.534;-122.308;2023-04-02T12:36:06;102007.94;;;10.06;100.00
69060;BME280;56135;37.534;-122.308;2023-04-02T12:38:46;102013.13;;;9.99;100.00
69060;BME280;56135;37.534;-122.308;2023-04-02T12:41:35;102013.88;;;9.86;100.00
69060;BME280;56135;37.534;-122.308;2023-04-02T12:44:03;102009.63;;;9.97;100.00
69060;BME280;56135;37.534;-122.308;2023-04-02T12:46:33;102007.06;;;10.07;100.00
69060;BME280;56135;37.534;-122.308;2023-04-02T12:51:36;102008.72;;;9.98;100.00
69060;BME280;56135;37.534;-122.308;2023-04-02T12:54:04;102010.47;;;9.96;100.00
69060;BME280;56135;37.534;-122.308;2023-04-02T12:56:30;102007.00;;;10.02;100.00
69060;BME280;56135;37.534;-122.308;2023-04-02T12:58:58;102010.41;;;9.92;100.00
69060;BME280;56135;37.534;-122.308;2023-04-02T13:01:30;102016.63;;;9.95;100.00
69060;BME280;56135;37.534;-122.308;2023-04-02T13:04:07;102017.53;;;9.97;100.00
69060;BME280;56135;37.534;-122.308;2023-04-02T13:06:40;102014.81;;;9.91;100.00
69060;BME280;56135;37.534;-122.308;2023-04-02T13:09:32;102017.47;;;9.93;100.00
69060;BME280;56135;37.534;-122.308;2023-04-02T13:12:00;102023.63;;;9.93;100.00
69060;BME280;56135;37.534;-122.308;2023-04-02T13:14:27;102022.75;;;9.93;100.00
69060;BME280;56135;37.534;-122.308;2023-04-02T13:16:53;102025.38;;;9.91;100.00
69060;BME280;56135;37.534;-122.308;2023-04-02T13:19:29;102027.94;;;9.83;100.00
69060;BME280;56135;37.534;-122.308;2023-04-02T13:21:57;102034.03;;;9.76;100.00
69060;BME280;56135;37.534;-122.308;2023-04-02T13:24:29;102032.38;;;9.89;100.00
69060;BME280;56135;37.534;-122.308;2023-04-02T13:27:01;102037.66;;;9.88;100.00
69060;BME280;56135;37.534;-122.308;2023-04-02T13:29:31;102036.69;;;9.81;100.00
69060;BME280;56135;37.534;-122.308;2023-04-02T13:32:04;102039.41;;;9.85;100.00
69060;BME280;56135;37.534;-122.308;2023-04-02T13:34:30;102041.13;;;9.83;100.00
69060;BME280;56135;37.534;-122.308;2023-04-02T13:36:57;102039.38;;;9.84;100.00
69060;BME280;56135;37.534;-122.308;2023-04-02T13:39:24;102029.72;;;9.86;100.00
69060;BME280;56135;37.534;-122.308;2023-04-02T13:41:55;102049.91;;;9.82;100.00
69060;BME280;56135;37.534;-122.308;2023-04-02T13:44:24;102053.41;;;9.80;100.00
69060;BME280;56135;37.534;-122.308;2023-04-02T13:46:52;102053.38;;;9.78;100.00
69060;BME280;56135;37.534;-122.308;2023-04-02T13:49:19;102047.25;;;9.78;100.00
69060;BME280;56135;37.534;-122.308;2023-04-02T13:51:49;102054.09;;;9.63;100.00
69060;BME280;56135;37.534;-122.308;2023-04-02T13:54:26;102050.50;;;9.55;100.00
69060;BME280;56135;37.534;-122.308;2023-04-02T13:56:56;102053.97;;;9.52;100.00
69060;BME280;56135;37.534;-122.308;2023-04-02T13:59:23;102063.78;;;9.64;100.00
69060;BME280;56135;37.534;-122.308;2023-04-02T14:01:53;102062.78;;;9.56;100.00
69060;BME280;56135;37.534;-122.308;2023-04-02T14:04:25;102059.34;;;9.60;100.00
69060;BME280;56135;37.534;-122.308;2023-04-02T14:13:22;102075.09;;;9.54;100.00
69060;BME280;56135;37.534;-122.308;2023-04-02T14:18:59;102070.53;;;9.42;100.00
69060;BME280;56135;37.534;-122.308;2023-04-02T14:24:18;102076.88;;;9.55;100.00
69060;BME280;56135;37.534;-122.308;2023-04-02T14:30:51;102074.84;;;9.35;100.00
69060;BME280;56135;37.534;-122.308;2023-04-02T14:33:37;102075.06;;;9.52;100.00
69060;BME280;56135;37.534;-122.308;2023-04-02T14:36:06;102076.81;;;9.52;100.00
69060;BME280;56135;37.534;-122.308;2023-04-02T14:41:35;102073.34;;;9.56;100.00
69060;BME280;56135;37.534;-122.308;2023-04-02T14:44:06;102078.59;;;9.55;100.00
69060;BME280;56135;37.534;-122.308;2023-04-02T14:46:36;102078.59;;;9.53;100.00
69060;BME280;56135;37.534;-122.308;2023-04-02T14:49:39;102081.13;;;9.47;100.00
69060;BME280;56135;37.534;-122.308;2023-04-02T14:52:17;102083.00;;;9.52;100.00
69060;BME280;56135;37.534;-122.308;2023-04-02T14:54:56;102085.78;;;9.66;100.00
69060;BME280;56135;37.534;-122.308;2023-04-02T14:57:51;102086.09;;;9.93;100.00
69060;BME280;56135;37.534;-122.308;2023-04-02T15:00:50;102086.22;;;10.04;100.00
69060;BME280;56135;37.534;-122.308;2023-04-02T15:03:24;102088.06;;;10.11;100.00
69060;BME280;56135;37.534;-122.308;2023-04-02T15:05:57;102089.75;;;10.04;100.00
69060;BME280;56135;37.534;-122.308;2023-04-02T15:08:30;102092.25;;;9.92;100.00
69060;BME280;56135;37.534;-122.308;2023-04-02T15:11:29;102090.47;;;9.89;100.00
69060;BME280;56135;37.534;-122.308;2023-04-02T15:14:37;102089.56;;;9.85;100.00
69060;BME280;56135;37.534;-122.308;2023-04-02T15:16:56;102094.16;;;10.05;100.00
69060;BME280;56135;37.534;-122.308;2023-04-02T15:19:23;102100.53;;;10.24;100.00
69060;BME280;56135;37.534;-122.308;2023-04-02T15:24:42;102091.91;;;10.41;100.00
69060;BME280;56135;37.534;-122.308;2023-04-02T15:32:47;102101.28;;;11.08;100.00
69060;BME280;56135;37.534;-122.308;2023-04-02T15:38:21;102096.31;;;11.63;100.00
69060;BME280;56135;37.534;-122.308;2023-04-02T15:40:59;102095.56;;;12.01;100.00
69060;BME280;56135;37.534;-122.308;2023-04-02T15:46:20;102094.81;;;12.80;100.00
69060;BME280;56135;37.534;-122.308;2023-04-02T15:49:16;102093.03;;;12.79;100.00
69060;BME280;56135;37.534;-122.308;2023-04-02T15:57:40;102103.59;;;12.32;100.00